sensor_id;sensor_type;location;lat;lon;timestamp;pressure;altitude;pressure_sealevel;temperature;humidity
2188;BME280;1100;52.014;8.540;2023-08-20T00:00:13;100701.22;;;19.59;89.89
2188;BME280;1100;52.014;8.540;2023-08-20T00:02:41;100692.19;;;19.54;89.72
2188;BME280;1100;52.014;8.540;2023-08-20T00:05:07;100699.88;;;19.54;89.46
2188;BME280;1100;52.014;8.540;2023-08-20T00:07:33;100708.03;;;19.52;89.62
2188;BME280;1100;52.014;8.540;2023-08-20T00:09:59;100707.47;;;19.48;89.53
2188;BME280;1100;52.014;8.540;2023-08-20T00:12:25;100707.16;;;19.46;89.63
2188;BME280;1100;52.014;8.540;2023-08-20T00:15:02;100701.25;;;19.44;89.44
2188;BME280;1100;52.014;8.540;2023-08-20T00:17:40;100709.41;;;19.41;89.46
2188;BME280;1100;52.014;8.540;2023-08-20T00:20:08;100711.94;;;19.39;89.22
2188;BME280;1100;52.014;8.540;2023-08-20T00:22:42;100716.50;;;19.37;89.14
2188;BME280;1100;52.014;8.540;2023-08-20T00:25:09;100719.25;;;19.31;89.17
2188;BME280;1100;52.014;8.540;2023-08-20T00:27:34;100715.06;;;19.26;89.07
2188;BME280;1100;52.014;8.540;2023-08-20T00:30:00;100719.34;;;19.22;89.02
2188;BME280;1100;52.014;8.540;2023-08-20T00:32:25;100725.94;;;19.19;88.89
2188;BME280;1100;52.014;8.540;2023-08-20T00:34:51;100714.84;;;19.15;89.05
2188;BME280;1100;52.014;8.540;2023-08-20T00:37:16;100723.00;;;19.13;88.97
2188;BME280;1100;52.014;8.540;2023-08-20T00:39:42;100726.78;;;19.10;88.94
2188;BME280;1100;52.014;8.540;2023-08-20T00:42:07;100718.03;;;19.08;88.93
2188;BME280;1100;52.014;8.540;2023-08-20T00:44:34;100713.84;;;19.03;88.79
2188;BME280;1100;52.014;8.540;2023-08-20T00:47:04;100712.75;;;19.00;88.92
2188;BME280;1100;52.014;8.540;2023-08-20T00:49:31;100712.97;;;18.97;88.75
2188;BME280;1100;52.014;8.540;2023-08-20T00:51:57;100712.84;;;18.91;88.72
2188;BME280;1100;52.014;8.540;2023-08-20T00:54:23;100715.00;;;18.81;88.41
2188;BME280;1100;52.014;8.540;2023-08-20T00:56:49;100714.59;;;18.73;88.34
2188;BME280;1100;52.014;8.540;2023-08-20T00:59:16;100704.94;;;18.65;88.44
2188;BME280;1100;52.014;8.540;2023-08-20T01:01:41;100716.75;;;18.54;88.22
2188;BME280;1100;52.014;8.540;2023-08-20T01:04:06;100720.88;;;18.43;88.12
2188;BME280;1100;52.014;8.540;2023-08-20T01:09:02;100714.88;;;18.26;88.28
2188;BME280;1100;52.014;8.540;2023-08-20T01:11:43;100722.91;;;18.18;88.15
2188;BME280;1100;52.014;8.540;2023-08-20T01:14:16;100713.25;;;18.10;88.23
2188;BME280;1100;52.014;8.540;2023-08-20T01:16:42;100711.56;;;18.03;88.06
2188;BME280;1100;52.014;8.540;2023-08-20T01:19:10;100708.31;;;17.96;88.09
2188;BME280;1100;52.014;8.540;2023-08-20T01:21:53;100703.34;;;17.90;88.17
2188;BME280;1100;52.014;8.540;2023-08-20T01:27:19;100695.13;;;17.77;88.35
2188;BME280;1100;52.014;8.540;2023-08-20T01:29:50;100698.91;;;17.74;88.23
2188;BME280;1100;52.014;8.540;2023-08-20T01:32:16;100699.53;;;17.69;88.25
2188;BME280;1100;52.014;8.540;2023-08-20T01:34:42;100701.75;;;17.65;88.25
2188;BME280;1100;52.014;8.540;2023-08-20T01:37:07;100703.94;;;17.61;88.23
2188;BME280;1100;52.014;8.540;2023-08-20T01:39:33;100699.75;;;17.56;88.27
2188;BME280;1100;52.014;8.540;2023-08-20T01:41:58;100696.63;;;17.54;88.31
2188;BME280;1100;52.014;8.540;2023-08-20T01:44:23;100700.09;;;17.49;88.37
2188;BME280;1100;52.014;8.540;2023-08-20T01:46:49;100695.09;;;17.43;88.15
2188;BME280;1100;52.014;8.540;2023-08-20T01:49:14;100699.31;;;17.39;88.25
2188;BME280;1100;52.014;8.540;2023-08-20T01:51:39;100710.28;;;17.37;88.35
2188;BME280;1100;52.014;8.540;2023-08-20T01:54:05;100714.78;;;17.34;88.45
2188;BME280;1100;52.014;8.540;2023-08-20T01:56:30;100711.84;;;17.28;88.26
2188;BME280;1100;52.014;8.540;2023-08-20T01:58:55;100701.84;;;17.27;88.45
2188;BME280;1100;52.014;8.540;2023-08-20T02:01:21;100700.28;;;17.26;88.34
2188;BME280;1100;52.014;8.540;2023-08-20T02:03:46;100703.56;;;17.25;88.66
2188;BME280;1100;52.014;8.540;2023-08-20T02:06:11;100701.22;;;17.23;88.66
2188;BME280;1100;52.014;8.540;2023-08-20T02:08:36;100699.69;;;17.22;88.54
2188;BME280;1100;52.014;8.540;2023-08-20T02:11:03;100696.56;;;17.20;88.44
2188;BME280;1100;52.014;8.540;2023-08-20T02:13:29;100691.88;;;17.17;88.34
2188;BME280;1100;52.014;8.540;2023-08-20T02:15:59;100691.56;;;17.15;88.45
2188;BME280;1100;52.014;8.540;2023-08-20T02:18:24;100709.81;;;17.10;88.40
2188;BME280;1100;52.014;8.540;2023-08-20T02:20:49;100698.75;;;17.06;88.38
2188;BME280;1100;52.014;8.540;2023-08-20T02:23:14;100705.59;;;17.05;88.58
2188;BME280;1100;52.014;8.540;2023-08-20T02:25:40;100702.50;;;17.03;88.53
2188;BME280;1100;52.014;8.540;2023-08-20T02:28:05;100696.88;;;17.03;88.72
2188;BME280;1100;52.014;8.540;2023-08-20T02:30:30;100709.66;;;17.04;88.70
2188;BME280;1100;52.014;8.540;2023-08-20T02:32:56;100716.81;;;17.05;88.77
2188;BME280;1100;52.014;8.540;2023-08-20T02:35:21;100716.81;;;17.05;88.77
2188;BME280;1100;52.014;8.540;2023-08-20T02:37:46;100727.16;;;17.09;88.71
2188;BME280;1100;52.014;8.540;2023-08-20T02:40:12;100719.84;;;17.11;89.18
2188;BME280;1100;52.014;8.540;2023-08-20T02:42:39;100722.78;;;17.17;89.16
2188;BME280;1100;52.014;8.540;2023-08-20T02:45:05;100717.00;;;17.21;89.38
2188;BME280;1100;52.014;8.540;2023-08-20T02:47:30;100717.16;;;17.26;89.30
2188;BME280;1100;52.014;8.540;2023-08-20T02:49:55;100731.81;;;17.30;89.34
2188;BME280;1100;52.014;8.540;2023-08-20T02:52:21;100720.88;;;17.33;89.54
2188;BME280;1100;52.014;8.540;2023-08-20T02:54:46;100723.06;;;17.38;89.35
2188;BME280;1100;52.014;8.540;2023-08-20T02:57:11;100729.28;;;17.42;89.35
2188;BME280;1100;52.014;8.540;2023-08-20T02:59:36;100723.19;;;17.43;89.35
2188;BME280;1100;52.014;8.540;2023-08-20T03:02:02;100723.50;;;17.46;89.50
2188;BME280;1100;52.014;8.540;2023-08-20T03:04:28;100733.50;;;17.47;89.51
2188;BME280;1100;52.014;8.540;2023-08-20T03:06:54;100740.69;;;17.48;89.51
2188;BME280;1100;52.014;8.540;2023-08-20T03:09:19;100742.56;;;17.51;89.59
2188;BME280;1100;52.014;8.540;2023-08-20T03:11:44;100741.59;;;17.54;89.56
2188;BME280;1100;52.014;8.540;2023-08-20T03:14:10;100745.50;;;17.56;89.70
2188;BME280;1100;52.014;8.540;2023-08-20T03:16:35;100736.13;;;17.60;89.75
2188;BME280;1100;52.014;8.540;2023-08-20T03:19:01;100750.00;;;17.63;89.93
2188;BME280;1100;52.014;8.540;2023-08-20T03:21:27;100734.22;;;17.66;89.87
2188;BME280;1100;52.014;8.540;2023-08-20T03:23:52;100730.78;;;17.71;89.95
2188;BME280;1100;52.014;8.540;2023-08-20T03:26:17;100733.41;;;17.75;89.96
2188;BME280;1100;52.014;8.540;2023-08-20T03:28:42;100728.88;;;17.77;89.85
2188;BME280;1100;52.014;8.540;2023-08-20T03:31:08;100730.13;;;17.76;89.75
2188;BME280;1100;52.014;8.540;2023-08-20T03:33:33;100744.16;;;17.76;89.74
2188;BME280;1100;52.014;8.540;2023-08-20T03:35:58;100748.25;;;17.75;89.72
2188;BME280;1100;52.014;8.540;2023-08-20T03:38:23;100743.56;;;17.72;89.62
2188;BME280;1100;52.014;8.540;2023-08-20T03:40:49;100736.88;;;17.70;89.52
2188;BME280;1100;52.014;8.540;2023-08-20T03:43:15;100742.66;;;17.66;89.52
2188;BME280;1100;52.014;8.540;2023-08-20T03:45:40;100740.00;;;17.62;89.62
2188;BME280;1100;52.014;8.540;2023-08-20T03:48:05;100734.56;;;17.59;89.56
2188;BME280;1100;52.014;8.540;2023-08-20T03:50:31;100738.00;;;17.53;89.71
2188;BME280;1100;52.014;8.540;2023-08-20T03:52:56;100736.94;;;17.51;89.56
2188;BME280;1100;52.014;8.540;2023-08-20T03:55:21;100741.44;;;17.48;89.57
2188;BME280;1100;52.014;8.540;2023-08-20T03:57:47;100756.16;;;17.43;89.58
2188;BME280;1100;52.014;8.540;2023-08-20T04:00:12;100762.09;;;17.36;89.42
2188;BME280;1100;52.014;8.540;2023-08-20T04:02:37;100765.84;;;17.33;89.51
2188;BME280;1100;52.014;8.540;2023-08-20T04:05:04;100767.25;;;17.28;89.52
2188;BME280;1100;52.014;8.540;2023-08-20T04:07:29;100777.22;;;17.29;89.64
2188;BME280;1100;52.014;8.540;2023-08-20T04:09:55;100773.66;;;17.28;89.60
2188;BME280;1100;52.014;8.540;2023-08-20T04:12:20;100785.81;;;17.25;89.59
2188;BME280;1100;52.014;8.540;2023-08-20T04:14:45;100781.44;;;17.24;89.51
2188;BME280;1100;52.014;8.540;2023-08-20T04:17:10;100774.41;;;17.19;89.50
2188;BME280;1100;52.014;8.540;2023-08-20T04:19:36;100776.16;;;17.17;89.49
2188;BME280;1100;52.014;8.540;2023-08-20T04:22:01;100775.06;;;17.14;89.56
2188;BME280;1100;52.014;8.540;2023-08-20T04:24:26;100775.22;;;17.11;89.53
2188;BME280;1100;52.014;8.540;2023-08-20T04:26:52;100780.19;;;17.06;89.52
2188;BME280;1100;52.014;8.540;2023-08-20T04:29:17;100780.34;;;17.03;89.62
2188;BME280;1100;52.014;8.540;2023-08-20T04:31:42;100777.84;;;16.96;89.33
2188;BME280;1100;52.014;8.540;2023-08-20T04:34:08;100773.63;;;16.91;89.31
2188;BME280;1100;52.014;8.540;2023-08-20T04:36:33;100784.22;;;16.87;89.47
2188;BME280;1100;52.014;8.540;2023-08-20T04:38:58;100782.34;;;16.84;89.39
2188;BME280;1100;52.014;8.540;2023-08-20T04:41:24;100781.28;;;16.81;89.55
2188;BME280;1100;52.014;8.540;2023-08-20T04:43:49;100780.47;;;16.80;89.49
2188;BME280;1100;52.014;8.540;2023-08-20T04:46:14;100791.72;;;16.80;89.61
2188;BME280;1100;52.014;8.540;2023-08-20T04:48:40;100794.84;;;16.83;89.52
2188;BME280;1100;52.014;8.540;2023-08-20T04:51:05;100788.44;;;16.82;89.65
2188;BME280;1100;52.014;8.540;2023-08-20T04:53:31;100790.78;;;16.84;89.85
2188;BME280;1100;52.014;8.540;2023-08-20T04:55:57;100793.44;;;16.87;89.82
2188;BME280;1100;52.014;8.540;2023-08-20T04:58:23;100796.41;;;16.93;89.98
2188;BME280;1100;52.014;8.540;2023-08-20T05:00:48;100792.97;;;16.98;90.07
2188;BME280;1100;52.014;8.540;2023-08-20T05:03:13;100781.88;;;17.04;89.99
2188;BME280;1100;52.014;8.540;2023-08-20T05:05:39;100785.19;;;17.12;90.19
2188;BME280;1100;52.014;8.540;2023-08-20T05:08:04;100787.38;;;17.17;90.12
2188;BME280;1100;52.014;8.540;2023-08-20T05:10:29;100792.06;;;17.20;90.14
2188;BME280;1100;52.014;8.540;2023-08-20T05:12:55;100785.19;;;17.21;90.05
2188;BME280;1100;52.014;8.540;2023-08-20T05:15:20;100775.81;;;17.24;90.08
2188;BME280;1100;52.014;8.540;2023-08-20T05:17:46;100772.06;;;17.27;90.08
2188;BME280;1100;52.014;8.540;2023-08-20T05:20:11;100768.03;;;17.28;90.10
2188;BME280;1100;52.014;8.540;2023-08-20T05:22:37;100771.44;;;17.33;90.09
2188;BME280;1100;52.014;8.540;2023-08-20T05:25:02;100773.31;;;17.36;90.14
2188;BME280;1100;52.014;8.540;2023-08-20T05:27:28;100773.16;;;17.39;90.00
2188;BME280;1100;52.014;8.540;2023-08-20T05:29:53;100779.09;;;17.41;90.05
2188;BME280;1100;52.014;8.540;2023-08-20T05:32:18;100785.00;;;17.43;90.04
2188;BME280;1100;52.014;8.540;2023-08-20T05:34:43;100774.41;;;17.48;90.05
2188;BME280;1100;52.014;8.540;2023-08-20T05:37:09;100770.19;;;17.52;90.18
2188;BME280;1100;52.014;8.540;2023-08-20T05:39:41;100781.88;;;17.60;90.22
2188;BME280;1100;52.014;8.540;2023-08-20T05:42:07;100782.00;;;17.66;90.21
2188;BME280;1100;52.014;8.540;2023-08-20T05:44:32;100785.75;;;17.72;90.29
2188;BME280;1100;52.014;8.540;2023-08-20T05:46:58;100781.81;;;17.79;90.12
2188;BME280;1100;52.014;8.540;2023-08-20T05:49:24;100780.41;;;17.84;90.26
2188;BME280;1100;52.014;8.540;2023-08-20T05:51:49;100781.31;;;17.90;90.28
2188;BME280;1100;52.014;8.540;2023-08-20T05:54:14;100780.19;;;17.97;90.29
2188;BME280;1100;52.014;8.540;2023-08-20T05:56:39;100781.72;;;18.07;90.39
2188;BME280;1100;52.014;8.540;2023-08-20T05:59:05;100786.19;;;18.23;90.86
2188;BME280;1100;52.014;8.540;2023-08-20T06:01:30;100777.53;;;18.36;90.74
2188;BME280;1100;52.014;8.540;2023-08-20T06:03:56;100778.06;;;18.50;90.79
2188;BME280;1100;52.014;8.540;2023-08-20T06:06:21;100776.28;;;18.62;90.72
2188;BME280;1100;52.014;8.540;2023-08-20T06:08:47;100770.59;;;18.71;90.60
2188;BME280;1100;52.014;8.540;2023-08-20T06:11:12;100766.44;;;18.82;90.36
2188;BME280;1100;52.014;8.540;2023-08-20T06:13:37;100778.91;;;18.90;90.27
2188;BME280;1100;52.014;8.540;2023-08-20T06:16:03;100776.97;;;18.96;90.12
2188;BME280;1100;52.014;8.540;2023-08-20T06:18:28;100787.69;;;19.07;90.36
2188;BME280;1100;52.014;8.540;2023-08-20T06:20:53;100785.88;;;19.19;90.52
2188;BME280;1100;52.014;8.540;2023-08-20T06:23:19;100792.41;;;19.25;89.92
2188;BME280;1100;52.014;8.540;2023-08-20T06:25:44;100796.69;;;19.36;89.92
2188;BME280;1100;52.014;8.540;2023-08-20T06:28:09;100794.84;;;19.48;90.08
2188;BME280;1100;52.014;8.540;2023-08-20T06:30:35;100792.50;;;19.61;89.98
2188;BME280;1100;52.014;8.540;2023-08-20T06:33:00;100795.84;;;19.75;90.15
2188;BME280;1100;52.014;8.540;2023-08-20T06:35:26;100800.59;;;19.84;89.97
2188;BME280;1100;52.014;8.540;2023-08-20T06:37:51;100793.28;;;19.92;89.85
2188;BME280;1100;52.014;8.540;2023-08-20T06:40:16;100790.69;;;20.03;89.79
2188;BME280;1100;52.014;8.540;2023-08-20T06:42:42;100799.28;;;20.15;89.70
2188;BME280;1100;52.014;8.540;2023-08-20T06:45:07;100805.13;;;20.26;89.71
2188;BME280;1100;52.014;8.540;2023-08-20T06:47:34;100804.78;;;20.39;89.71
2188;BME280;1100;52.014;8.540;2023-08-20T06:49:59;100801.84;;;20.49;89.52
2188;BME280;1100;52.014;8.540;2023-08-20T06:52:24;100802.97;;;20.57;89.48
2188;BME280;1100;52.014;8.540;2023-08-20T06:54:50;100796.69;;;20.68;89.37
2188;BME280;1100;52.014;8.540;2023-08-20T06:57:15;100798.59;;;20.77;89.35
2188;BME280;1100;52.014;8.540;2023-08-20T06:59:40;100798.72;;;20.88;88.89
2188;BME280;1100;52.014;8.540;2023-08-20T07:02:07;100798.69;;;21.03;89.09
2188;BME280;1100;52.014;8.540;2023-08-20T07:04:32;100783.41;;;21.16;89.32
2188;BME280;1100;52.014;8.540;2023-08-20T07:06:58;100789.44;;;21.29;89.03
2188;BME280;1100;52.014;8.540;2023-08-20T07:09:24;100791.09;;;21.42;88.74
2188;BME280;1100;52.014;8.540;2023-08-20T07:11:49;100787.34;;;21.51;88.81
2188;BME280;1100;52.014;8.540;2023-08-20T07:14:14;100788.22;;;21.63;88.72
2188;BME280;1100;52.014;8.540;2023-08-20T07:16:39;100786.25;;;21.75;88.60
2188;BME280;1100;52.014;8.540;2023-08-20T07:19:05;100788.69;;;21.88;88.73
2188;BME280;1100;52.014;8.540;2023-08-20T07:21:30;100798.53;;;21.98;88.63
2188;BME280;1100;52.014;8.540;2023-08-20T07:23:55;100790.41;;;22.12;88.31
2188;BME280;1100;52.014;8.540;2023-08-20T07:26:21;100791.53;;;22.26;87.92
2188;BME280;1100;52.014;8.540;2023-08-20T07:28:46;100802.09;;;22.31;87.81
2188;BME280;1100;52.014;8.540;2023-08-20T07:31:32;100792.84;;;22.31;87.04
2188;BME280;1100;52.014;8.540;2023-08-20T07:33:59;100798.00;;;22.32;87.53
2188;BME280;1100;52.014;8.540;2023-08-20T07:36:26;100791.63;;;22.43;87.95
2188;BME280;1100;52.014;8.540;2023-08-20T07:38:52;100796.91;;;22.62;87.53
2188;BME280;1100;52.014;8.540;2023-08-20T07:41:18;100790.34;;;22.99;87.42
2188;BME280;1100;52.014;8.540;2023-08-20T07:43:49;100789.91;;;23.41;87.40
2188;BME280;1100;52.014;8.540;2023-08-20T07:46:15;100787.63;;;23.74;86.96
2188;BME280;1100;52.014;8.540;2023-08-20T07:48:41;100786.31;;;24.04;86.03
2188;BME280;1100;52.014;8.540;2023-08-20T07:51:06;100791.47;;;24.22;85.79
2188;BME280;1100;52.014;8.540;2023-08-20T07:53:32;100796.59;;;24.41;85.55
2188;BME280;1100;52.014;8.540;2023-08-20T07:56:01;100790.56;;;24.62;85.47
2188;BME280;1100;52.014;8.540;2023-08-20T07:58:27;100785.34;;;24.77;84.70
2188;BME280;1100;52.014;8.540;2023-08-20T08:00:53;100791.28;;;24.80;84.30
2188;BME280;1100;52.014;8.540;2023-08-20T08:03:18;100797.44;;;24.84;83.81
2188;BME280;1100;52.014;8.540;2023-08-20T08:05:48;100787.84;;;24.98;83.98
2188;BME280;1100;52.014;8.540;2023-08-20T08:08:14;100795.31;;;25.01;83.60
2188;BME280;1100;52.014;8.540;2023-08-20T08:10:40;100791.19;;;25.03;83.47
2188;BME280;1100;52.014;8.540;2023-08-20T08:13:05;100798.22;;;24.96;83.46
2188;BME280;1100;52.014;8.540;2023-08-20T08:15:30;100795.59;;;25.04;83.73
2188;BME280;1100;52.014;8.540;2023-08-20T08:17:56;100800.19;;;25.12;83.75
2188;BME280;1100;52.014;8.540;2023-08-20T08:20:21;100802.22;;;25.18;83.30
2188;BME280;1100;52.014;8.540;2023-08-20T08:22:47;100803.69;;;25.30;83.57
2188;BME280;1100;52.014;8.540;2023-08-20T08:25:12;100802.78;;;25.47;83.28
2188;BME280;1100;52.014;8.540;2023-08-20T08:27:38;100789.25;;;25.65;83.27
2188;BME280;1100;52.014;8.540;2023-08-20T08:30:04;100806.78;;;25.74;82.84
2188;BME280;1100;52.014;8.540;2023-08-20T08:32:29;100806.44;;;25.84;82.56
2188;BME280;1100;52.014;8.540;2023-08-20T08:34:54;100800.84;;;25.97;82.40
2188;BME280;1100;52.014;8.540;2023-08-20T08:37:20;100798.25;;;25.99;81.56
2188;BME280;1100;52.014;8.540;2023-08-20T08:39:45;100792.75;;;26.07;81.87
2188;BME280;1100;52.014;8.540;2023-08-20T08:42:11;100798.28;;;26.24;81.74
2188;BME280;1100;52.014;8.540;2023-08-20T08:44:38;100798.19;;;26.30;80.69
2188;BME280;1100;52.014;8.540;2023-08-20T08:47:06;100798.88;;;26.42;81.29
2188;BME280;1100;52.014;8.540;2023-08-20T08:49:34;100800.88;;;26.47;80.99
2188;BME280;1100;52.014;8.540;2023-08-20T08:52:01;100803.97;;;26.49;80.52
2188;BME280;1100;52.014;8.540;2023-08-20T08:54:28;100805.84;;;26.66;80.75
2188;BME280;1100;52.014;8.540;2023-08-20T08:56:54;100804.31;;;26.65;79.84
2188;BME280;1100;52.014;8.540;2023-08-20T08:59:21;100805.84;;;26.66;80.50
2188;BME280;1100;52.014;8.540;2023-08-20T09:01:46;100809.63;;;26.74;80.47
2188;BME280;1100;52.014;8.540;2023-08-20T09:04:11;100802.78;;;26.83;80.25
2188;BME280;1100;52.014;8.540;2023-08-20T09:06:50;100803.09;;;26.80;79.66
2188;BME280;1100;52.014;8.540;2023-08-20T09:09:17;100807.16;;;26.65;79.39
2188;BME280;1100;52.014;8.540;2023-08-20T09:11:43;100807.41;;;26.67;79.85
2188;BME280;1100;52.014;8.540;2023-08-20T09:14:20;100804.56;;;26.86;79.66
2188;BME280;1100;52.014;8.540;2023-08-20T09:16:47;100800.16;;;26.85;78.34
2188;BME280;1100;52.014;8.540;2023-08-20T09:19:12;100804.00;;;26.88;78.18
2188;BME280;1100;52.014;8.540;2023-08-20T09:21:37;100800.09;;;26.91;78.35
2188;BME280;1100;52.014;8.540;2023-08-20T09:24:03;100804.50;;;26.92;78.52
2188;BME280;1100;52.014;8.540;2023-08-20T09:26:28;100798.16;;;26.80;77.98
2188;BME280;1100;52.014;8.540;2023-08-20T09:28:55;100796.00;;;26.67;78.46
2188;BME280;1100;52.014;8.540;2023-08-20T09:31:36;100793.75;;;26.60;79.09
2188;BME280;1100;52.014;8.540;2023-08-20T09:34:02;100792.88;;;26.46;78.68
2188;BME280;1100;52.014;8.540;2023-08-20T09:36:32;100784.22;;;26.32;77.13
2188;BME280;1100;52.014;8.540;2023-08-20T09:38:57;100784.84;;;26.19;77.49
2188;BME280;1100;52.014;8.540;2023-08-20T09:41:23;100784.56;;;26.23;78.33
2188;BME280;1100;52.014;8.540;2023-08-20T09:43:55;100788.06;;;26.35;77.80
2188;BME280;1100;52.014;8.540;2023-08-20T09:46:23;100785.81;;;26.53;78.07
2188;BME280;1100;52.014;8.540;2023-08-20T09:48:50;100794.56;;;26.80;77.64
2188;BME280;1100;52.014;8.540;2023-08-20T09:51:19;100802.88;;;26.97;76.66
2188;BME280;1100;52.014;8.540;2023-08-20T09:54:14;100804.03;;;27.27;76.96
2188;BME280;1100;52.014;8.540;2023-08-20T09:56:39;100805.00;;;27.48;76.52
2188;BME280;1100;52.014;8.540;2023-08-20T09:59:04;100806.00;;;27.51;74.99
2188;BME280;1100;52.014;8.540;2023-08-20T10:01:30;100802.84;;;27.55;75.03
2188;BME280;1100;52.014;8.540;2023-08-20T10:03:56;100801.56;;;27.69;75.69
2188;BME280;1100;52.014;8.540;2023-08-20T10:06:23;100800.19;;;27.90;75.23
2188;BME280;1100;52.014;8.540;2023-08-20T10:08:48;100809.56;;;28.04;75.29
2188;BME280;1100;52.014;8.540;2023-08-20T10:11:15;100808.91;;;28.24;75.41
2188;BME280;1100;52.014;8.540;2023-08-20T10:13:40;100806.41;;;28.48;75.75
2188;BME280;1100;52.014;8.540;2023-08-20T10:16:05;100806.50;;;28.56;74.18
2188;BME280;1100;52.014;8.540;2023-08-20T10:18:34;100802.66;;;28.53;74.74
2188;BME280;1100;52.014;8.540;2023-08-20T10:21:00;100799.81;;;28.53;74.94
2188;BME280;1100;52.014;8.540;2023-08-20T10:23:26;100803.00;;;28.50;73.56
2188;BME280;1100;52.014;8.540;2023-08-20T10:25:52;100803.88;;;28.58;73.47
2188;BME280;1100;52.014;8.540;2023-08-20T10:31:09;100808.88;;;27.97;74.08
2188;BME280;1100;52.014;8.540;2023-08-20T10:33:55;100805.22;;;27.83;74.42
2188;BME280;1100;52.014;8.540;2023-08-20T10:36:22;100806.47;;;28.02;74.88
2188;BME280;1100;52.014;8.540;2023-08-20T10:38:51;100804.38;;;27.89;74.55
2188;BME280;1100;52.014;8.540;2023-08-20T10:41:24;100802.31;;;27.37;74.58
2188;BME280;1100;52.014;8.540;2023-08-20T10:43:50;100806.56;;;27.30;74.23
2188;BME280;1100;52.014;8.540;2023-08-20T10:46:21;100806.19;;;27.72;73.95
2188;BME280;1100;52.014;8.540;2023-08-20T10:48:48;100801.34;;;27.67;74.78
2188;BME280;1100;52.014;8.540;2023-08-20T10:51:32;100793.25;;;27.85;74.19
2188;BME280;1100;52.014;8.540;2023-08-20T10:56:46;100796.06;;;28.45;73.02
2188;BME280;1100;52.014;8.540;2023-08-20T10:59:21;100791.53;;;28.77;72.21
2188;BME280;1100;52.014;8.540;2023-08-20T11:01:52;100798.28;;;29.14;72.62
2188;BME280;1100;52.014;8.540;2023-08-20T11:04:19;100799.88;;;28.88;71.50
2188;BME280;1100;52.014;8.540;2023-08-20T11:06:46;100788.44;;;28.75;71.31
2188;BME280;1100;52.014;8.540;2023-08-20T11:09:12;100799.25;;;28.55;71.00
2188;BME280;1100;52.014;8.540;2023-08-20T11:11:39;100793.75;;;28.70;71.32
2188;BME280;1100;52.014;8.540;2023-08-20T11:14:12;100804.16;;;28.95;71.46
2188;BME280;1100;52.014;8.540;2023-08-20T11:16:42;100798.56;;;28.76;70.35
2188;BME280;1100;52.014;8.540;2023-08-20T11:19:08;100802.88;;;28.42;70.01
2188;BME280;1100;52.014;8.540;2023-08-20T11:21:35;100804.00;;;28.52;70.23
2188;BME280;1100;52.014;8.540;2023-08-20T11:24:01;100807.97;;;28.49;71.18
2188;BME280;1100;52.014;8.540;2023-08-20T11:26:27;100810.78;;;28.08;70.13
2188;BME280;1100;52.014;8.540;2023-08-20T11:28:52;100806.56;;;27.63;69.13
2188;BME280;1100;52.014;8.540;2023-08-20T11:31:17;100813.47;;;27.54;70.01
2188;BME280;1100;52.014;8.540;2023-08-20T11:33:42;100824.19;;;27.67;70.27
2188;BME280;1100;52.014;8.540;2023-08-20T11:36:08;100813.47;;;27.87;70.19
2188;BME280;1100;52.014;8.540;2023-08-20T11:38:33;100814.44;;;28.36;70.19
2188;BME280;1100;52.014;8.540;2023-08-20T11:40:59;100816.75;;;28.65;69.89
2188;BME280;1100;52.014;8.540;2023-08-20T11:43:27;100810.75;;;28.90;69.00
2188;BME280;1100;52.014;8.540;2023-08-20T11:45:52;100806.91;;;28.87;69.17
2188;BME280;1100;52.014;8.540;2023-08-20T11:48:19;100813.19;;;28.99;69.10
2188;BME280;1100;52.014;8.540;2023-08-20T11:50:46;100810.09;;;28.97;68.55
2188;BME280;1100;52.014;8.540;2023-08-20T11:53:12;100805.06;;;28.63;69.52
2188;BME280;1100;52.014;8.540;2023-08-20T11:55:39;100804.53;;;28.37;67.60
2188;BME280;1100;52.014;8.540;2023-08-20T11:58:05;100799.97;;;28.01;68.51
2188;BME280;1100;52.014;8.540;2023-08-20T12:00:31;100798.22;;;27.84;68.74
2188;BME280;1100;52.014;8.540;2023-08-20T12:02:57;100800.38;;;27.45;69.31
2188;BME280;1100;52.014;8.540;2023-08-20T12:05:28;100794.25;;;27.03;69.48
2188;BME280;1100;52.014;8.540;2023-08-20T12:07:57;100800.56;;;26.95;69.37
2188;BME280;1100;52.014;8.540;2023-08-20T12:10:24;100790.94;;;26.98;69.20
2188;BME280;1100;52.014;8.540;2023-08-20T12:12:50;100781.69;;;26.92;69.53
2188;BME280;1100;52.014;8.540;2023-08-20T12:15:17;100790.78;;;26.91;69.42
2188;BME280;1100;52.014;8.540;2023-08-20T12:17:43;100794.16;;;26.89;70.01
2188;BME280;1100;52.014;8.540;2023-08-20T12:20:08;100788.91;;;26.93;69.76
2188;BME280;1100;52.014;8.540;2023-08-20T12:22:40;100792.31;;;26.92;70.23
2188;BME280;1100;52.014;8.540;2023-08-20T12:25:06;100783.22;;;26.93;69.69
2188;BME280;1100;52.014;8.540;2023-08-20T12:27:31;100786.44;;;26.84;69.44
2188;BME280;1100;52.014;8.540;2023-08-20T12:29:57;100783.03;;;26.66;68.72
2188;BME280;1100;52.014;8.540;2023-08-20T12:32:22;100779.03;;;26.56;69.16
2188;BME280;1100;52.014;8.540;2023-08-20T12:34:47;100775.47;;;26.49;69.66
2188;BME280;1100;52.014;8.540;2023-08-20T12:37:13;100781.94;;;26.50;69.52
2188;BME280;1100;52.014;8.540;2023-08-20T12:39:38;100775.25;;;26.47;69.70
2188;BME280;1100;52.014;8.540;2023-08-20T12:42:04;100771.84;;;26.49;68.42
2188;BME280;1100;52.014;8.540;2023-08-20T12:44:29;100775.69;;;26.52;68.77
2188;BME280;1100;52.014;8.540;2023-08-20T12:46:54;100773.47;;;26.44;68.85
2188;BME280;1100;52.014;8.540;2023-08-20T12:49:20;100772.38;;;26.22;68.81
2188;BME280;1100;52.014;8.540;2023-08-20T12:51:45;100774.69;;;25.99;68.87
2188;BME280;1100;52.014;8.540;2023-08-20T12:54:10;100779.84;;;25.75;69.43
2188;BME280;1100;52.014;8.540;2023-08-20T12:56:36;100784.88;;;25.63;69.61
2188;BME280;1100;52.014;8.540;2023-08-20T12:59:01;100782.81;;;25.58;69.92
2188;BME280;1100;52.014;8.540;2023-08-20T13:01:28;100782.81;;;25.58;69.85
2188;BME280;1100;52.014;8.540;2023-08-20T13:03:53;100780.66;;;25.70;69.64
2188;BME280;1100;52.014;8.540;2023-08-20T13:06:19;100774.50;;;25.91;70.00
2188;BME280;1100;52.014;8.540;2023-08-20T13:08:45;100780.28;;;26.10;69.76
2188;BME280;1100;52.014;8.540;2023-08-20T13:11:13;100771.91;;;26.18;69.48
2188;BME280;1100;52.014;8.540;2023-08-20T13:13:39;100770.44;;;26.11;69.24
2188;BME280;1100;52.014;8.540;2023-08-20T13:16:04;100773.34;;;26.06;69.52